Portada
METAR-TAF:

METAR-TAF

Aeroports :

Hua Hin, Tailàndia

latitud: 12-35N, longitud: 099-57E, altitud: 5 m

Observació

L'informe es va fer fa 12 hores i 14 minuts, a les 11:00 UTC
Vent 11 kt del Sud/Sud-Est, variant entre Sud-Est i Sud/Sud-Oest
Temperatura 28°C
Humitat 74%
Pressió 1010 hPa
Visibilitat: 9000 m
Escasses núvols a una alçada de 3000 ft

METAR: VTPH 011100Z 16011KT 130V200 9000 FEW030 28/23 Q1010 NOSIG

Hora: 06:14 (23:14 UTC)

Pronòstic

L'informe es va fer fa 6 hores i 14 minuts, a les 17:00 UTC
Pronòstic vàlid del 01 a les 18 UTC al 02 a les 18 UTC
Vent 3 kt del Sud-Oest
Visibilitat: 8000 m
Escasses núvols a una alçada de 2000 ft
Evolucionant progressivament
l' 02 a les 04 UTC al 02 a les 06 UTC
Vent 10 kt del Sud-Est
Evolucionant progressivament
l' 02 a les 13 UTC al 02 a les 15 UTC
Vent 3 kt del Sud-Oest

TAF: VTPH 011700Z 0118/0218 23003KT 8000 FEW020 BECMG 0204/0206 14010KT BECMG 0213/0215 23003KT

Observacions i pronòstics meteorològics de més de 4000 aeroports (METAR i TAF).

Les estacions disponibles són els punts grocs i vermells al mapa.

Posi el ratolí al punt desitjat per veure el nom de l'estació.

Feu clic per veure les observacions i els pronòstics meteorològics.

Per canviar el mapa: feu clic els botons verds amb una creu de color negre per apropar; al botó verd amb un guió per allunyar la imatge; o en les fletxes verdes per a mapes adjacents.


METAR-TAF: